Time;durP1;ratioP1;P1;durP2;ratioP2;P2;SDS_P1;SDS_P2;PMS_P1;PMS_P2;Temp;Humidity;BMP_temperature;BMP_pressure;BME280_temperature;BME280_humidity;BME280_pressure;Samples;Min_cycle;Max_cycle;Signal;HPM_P1;HPM_P2
2023/05/30 00:02:49;;;;;;;12.73;2.72;;;;;;;10.77;100.00;101530.97;6244323;28;20056;-88
2023/05/30 00:05:52;;;;;;;13.88;2.83;;;;;;;10.71;100.00;101531.38;6250188;28;20041;-88
2023/05/30 00:08:54;;;;;;;14.02;2.63;;;;;;;10.68;100.00;101531.56;6247077;28;20801;-88
2023/05/30 00:11:57;;;;;;;10.10;2.85;;;;;;;10.63;100.00;101515.47;6242385;28;20831;-88
2023/05/30 00:15:01;;;;;;;10.25;2.75;;;;;;;10.53;100.00;101523.84;6249227;28;20132;-88
2023/05/30 00:18:02;;;;;;;14.50;3.20;;;;;;;10.45;100.00;101530.41;6240407;28;20055;-87
2023/05/30 00:21:05;;;;;;;13.75;2.70;;;;;;;10.45;100.00;101530.41;6255757;28;20123;-88
2023/05/30 00:24:07;;;;;;;11.80;2.78;;;;;;;10.38;100.00;101523.97;6251303;28;20045;-88
2023/05/30 00:27:09;;;;;;;13.38;2.60;;;;;;;10.38;100.00;101529.97;6250491;28;20392;-88
2023/05/30 00:30:12;;;;;;;11.35;2.58;;;;;;;10.39;100.00;101520.47;6248533;28;20156;-88
2023/05/30 00:33:14;;;;;;;13.02;2.80;;;;;;;10.29;100.00;101525.38;6247909;28;20037;-88
2023/05/30 00:36:16;;;;;;;10.40;2.97;;;;;;;10.29;100.00;101530.56;6249387;28;20519;-88
2023/05/30 00:39:18;;;;;;;12.25;2.75;;;;;;;10.31;100.00;101523.50;6243564;28;20064;-88
2023/05/30 00:42:20;;;;;;;10.32;2.90;;;;;;;10.27;100.00;101532.38;6233821;28;20194;-88
2023/05/30 00:45:21;;;;;;;15.95;2.90;;;;;;;10.27;100.00;101528.00;6245668;28;20053;-88
2023/05/30 00:48:24;;;;;;;15.10;2.67;;;;;;;10.22;100.00;101524.06;6243613;28;20041;-87
2023/05/30 00:51:28;;;;;;;10.77;3.10;;;;;;;10.21;100.00;101527.53;6259084;28;20522;-88
2023/05/30 00:54:30;;;;;;;8.10;2.85;;;;;;;10.12;100.00;101529.78;6254737;28;20513;-88
2023/05/30 00:57:33;;;;;;;11.05;2.78;;;;;;;10.10;100.00;101529.03;6250441;28;20041;-88
2023/05/30 01:00:41;;;;;;;13.55;3.15;;;;;;;10.10;100.00;101530.81;6243096;28;20119;-88
2023/05/30 01:03:44;;;;;;;10.45;3.25;;;;;;;10.07;100.00;101531.81;6243855;28;20049;-88
2023/05/30 01:06:46;;;;;;;12.05;2.90;;;;;;;10.04;100.00;101528.59;6235943;28;20650;-88
2023/05/30 01:09:52;;;;;;;9.77;3.38;;;;;;;10.03;100.00;101527.75;6231997;28;20036;-87
2023/05/30 01:13:18;;;;;;;14.27;3.25;;;;;;;10.04;100.00;101532.00;6245335;28;20040;-88
2023/05/30 01:16:25;;;;;;;14.75;3.10;;;;;;;9.99;100.00;101538.41;6254017;28;20053;-88
2023/05/30 01:19:55;;;;;;;18.73;3.72;;;;;;;9.89;100.00;101540.69;6254072;28;20514;-88
2023/05/30 01:23:30;;;;;;;11.43;3.17;;;;;;;9.96;100.00;101543.72;6248580;28;20056;-88
2023/05/30 01:27:09;;;;;;;19.05;3.42;;;;;;;9.99;100.00;101535.81;6243394;28;20046;-88
2023/05/30 01:30:13;;;;;;;13.27;3.60;;;;;;;9.97;100.00;101540.25;6249837;28;20049;-88
2023/05/30 01:33:17;;;;;;;13.00;3.10;;;;;;;10.01;100.00;101536.53;6240661;28;20048;-88
2023/05/30 01:36:19;;;;;;;14.43;3.20;;;;;;;9.97;100.00;101537.66;6256215;28;20110;-88
2023/05/30 01:39:22;;;;;;;14.18;3.67;;;;;;;9.90;100.00;101535.41;6252827;28;20052;-88
2023/05/30 01:42:28;;;;;;;8.20;2.88;;;;;;;9.85;100.00;101537.44;6246506;28;20962;-88
2023/05/30 01:46:09;;;;;;;19.05;4.10;;;;;;;9.86;100.00;101538.28;6253935;28;20503;-88
2023/05/30 01:49:21;;;;;;;10.00;2.75;;;;;;;9.87;100.00;101525.25;6248788;28;20049;-87
2023/05/30 01:52:29;;;;;;;17.00;3.97;;;;;;;9.79;100.00;101530.06;6255830;28;20068;-87
2023/05/30 01:55:35;;;;;;;9.60;3.13;;;;;;;9.76;100.00;101532.81;6244821;28;20049;-88
2023/05/30 01:58:38;;;;;;;17.65;3.55;;;;;;;9.72;100.00;101531.34;6262622;28;20048;-88
2023/05/30 02:01:41;;;;;;;17.23;3.80;;;;;;;9.74;100.00;101541.59;6240921;28;20527;-88
2023/05/30 02:04:43;;;;;;;12.25;3.17;;;;;;;9.71;100.00;101532.25;6249615;28;20411;-88
2023/05/30 02:07:44;;;;;;;13.48;3.20;;;;;;;9.65;100.00;101541.22;6244108;28;20159;-88
2023/05/30 02:10:47;;;;;;;11.82;3.28;;;;;;;9.74;100.00;101549.34;6246117;28;20232;-88
2023/05/30 02:13:48;;;;;;;11.50;2.90;;;;;;;9.74;100.00;101544.16;6243195;28;20128;-88
2023/05/30 02:16:50;;;;;;;14.75;3.67;;;;;;;9.75;100.00;101544.09;6245118;28;20068;-88
2023/05/30 02:19:52;;;;;;;14.82;3.75;;;;;;;9.76;100.00;101544.91;6246655;28;20522;-88
2023/05/30 02:22:54;;;;;;;15.32;2.95;;;;;;;9.73;100.00;101542.53;6248762;28;20440;-88
2023/05/30 02:25:56;;;;;;;16.70;3.35;;;;;;;9.69;100.00;101539.28;6249087;28;20042;-88
2023/05/30 02:28:58;;;;;;;15.07;3.60;;;;;;;9.64;100.00;101547.31;6226917;28;20526;-88
2023/05/30 02:32:00;;;;;;;17.33;3.78;;;;;;;9.66;100.00;101553.22;6251155;28;20051;-87
2023/05/30 02:35:03;;;;;;;16.13;3.83;;;;;;;9.75;100.00;101553.59;6234155;28;20072;-88
2023/05/30 02:38:06;;;;;;;11.93;3.42;;;;;;;9.62;100.00;101558.66;6230339;28;20059;-88
2023/05/30 02:41:08;;;;;;;12.43;3.30;;;;;;;9.66;100.00;101558.41;6243387;28;20411;-88
2023/05/30 02:44:09;;;;;;;16.33;3.42;;;;;;;9.64;100.00;101564.59;6246031;28;20581;-88
2023/05/30 02:47:12;;;;;;;13.20;3.65;;;;;;;9.67;100.00;101574.75;6268978;28;20422;-87
2023/05/30 02:50:15;;;;;;;13.23;4.38;;;;;;;9.64;100.00;101573.16;6247914;28;20036;-88
2023/05/30 02:53:17;;;;;;;14.35;3.38;;;;;;;9.67;100.00;101575.56;6247451;28;20073;-88
2023/05/30 02:56:23;;;;;;;15.05;4.00;;;;;;;9.70;100.00;101569.38;6249253;28;20548;-88
2023/05/30 02:59:32;;;;;;;14.98;3.58;;;;;;;9.66;100.00;101579.09;6251138;28;20160;-88
2023/05/30 03:02:43;;;;;;;;;;;;;;;9.64;100.00;101580.09;6231087;28;20511;-88
2023/05/30 03:05:47;;;;;;;19.35;4.25;;;;;;;9.67;100.00;101580.75;6241667;28;19925;-88
2023/05/30 03:09:01;;;;;;;13.77;3.58;;;;;;;9.66;100.00;101579.09;6232925;28;20046;-88
2023/05/30 03:12:06;;;;;;;9.65;3.28;;;;;;;9.64;100.00;101578.34;6248473;28;20037;-88
2023/05/30 03:15:09;;;;;;;14.68;3.92;;;;;;;9.64;100.00;101582.69;6228601;28;20057;-88
2023/05/30 03:18:11;;;;;;;13.65;3.67;;;;;;;9.67;100.00;101575.56;6243089;28;20056;-87
2023/05/30 03:21:14;;;;;;;13.85;3.85;;;;;;;9.73;100.00;101576.13;6247664;28;20045;-88
2023/05/30 03:24:17;;;;;;;13.23;3.47;;;;;;;9.72;100.00;101580.47;6262232;28;20060;-88
2023/05/30 03:27:19;;;;;;;11.55;3.30;;;;;;;9.68;100.00;101586.72;6247954;28;20191;-88
2023/05/30 03:30:26;;;;;;;12.23;3.33;;;;;;;9.68;100.00;101592.72;6246091;28;20056;-88
2023/05/30 03:33:32;;;;;;;9.43;2.83;;;;;;;9.65;100.00;101589.50;6246175;28;20087;-88
2023/05/30 03:36:35;;;;;;;12.55;3.33;;;;;;;9.67;100.00;101592.84;6245198;28;20038;-87
2023/05/30 03:39:37;;;;;;;11.82;3.30;;;;;;;9.75;100.00;101589.81;6246949;28;20042;-88
2023/05/30 03:42:39;;;;;;;14.25;3.78;;;;;;;9.78;100.00;101603.38;6246386;28;20061;-88
2023/05/30 03:45:46;;;;;;;10.15;3.63;;;;;;;9.81;100.00;101597.19;6242522;28;20191;-88
2023/05/30 03:48:48;;;;;;;16.13;3.88;;;;;;;9.87;100.00;101602.00;6247857;28;20048;-88
2023/05/30 03:51:50;;;;;;;10.90;3.42;;;;;;;9.86;100.00;101601.19;6242029;28;20068;-88
2023/05/30 03:54:52;;;;;;;15.68;3.40;;;;;;;9.83;100.00;101606.53;6246278;28;20042;-88
2023/05/30 03:57:53;;;;;;;15.43;3.83;;;;;;;9.82;100.00;101604.03;6248010;28;20503;-88
2023/05/30 04:00:55;;;;;;;15.23;3.08;;;;;;;9.78;100.00;101602.53;6250827;28;20470;-88
2023/05/30 04:03:58;;;;;;;11.48;3.85;;;;;;;9.75;100.00;101613.06;6239369;28;20564;-88
2023/05/30 04:07:00;;;;;;;11.95;3.30;;;;;;;9.74;100.00;101612.25;6247910;28;20135;-88
2023/05/30 04:10:03;;;;;;;13.15;3.22;;;;;;;9.82;100.00;101614.38;6231602;28;20037;-88
2023/05/30 04:13:05;;;;;;;11.52;3.13;;;;;;;9.87;100.00;101620.13;6237711;28;20041;-87
2023/05/30 04:16:08;;;;;;;16.30;4.10;;;;;;;9.90;100.00;101623.34;6246712;28;20053;-88
2023/05/30 04:19:10;;;;;;;16.25;4.00;;;;;;;10.08;100.00;101615.44;6245405;28;20443;-88
2023/05/30 04:22:11;;;;;;;10.05;3.22;;;;;;;10.14;100.00;101615.91;6248342;28;20038;-88
2023/05/30 04:25:14;;;;;;;14.90;3.80;;;;;;;10.20;100.00;101625.03;6260907;28;20499;-88
2023/05/30 04:28:22;;;;;;;6.90;2.78;;;;;;;10.26;100.00;101629.88;6243695;28;20056;-88
2023/05/30 04:31:24;;;;;;;11.52;3.65;;;;;;;10.21;100.00;101637.06;6245859;28;20398;-88
2023/05/30 04:34:26;;;;;;;12.13;3.70;;;;;;;10.25;100.00;101635.13;6248891;28;20044;-88
2023/05/30 04:37:29;;;;;;;13.52;3.72;;;;;;;10.23;100.00;101629.19;6247527;28;20411;-88
2023/05/30 04:40:32;;;;;;;9.95;3.40;;;;;;;10.20;100.00;101637.97;6243532;28;20045;-88
2023/05/30 04:43:34;;;;;;;17.38;3.95;;;;;;;10.18;100.00;101632.06;6244723;28;20071;-88
2023/05/30 04:46:36;;;;;;;9.85;3.50;;;;;;;10.18;100.00;101631.22;6243379;28;20361;-87
2023/05/30 04:49:41;;;;;;;13.05;3.63;;;;;;;10.17;100.00;101632.16;6253724;28;20174;-88
2023/05/30 04:52:43;;;;;;;14.13;3.70;;;;;;;10.16;100.00;101641.69;6239435;28;20529;-88
2023/05/30 04:55:45;;;;;;;17.05;4.60;;;;;;;10.16;100.00;101644.28;6244489;28;20041;-88
2023/05/30 04:58:48;;;;;;;12.38;3.28;;;;;;;10.14;100.00;101644.38;6252499;28;20047;-88
2023/05/30 05:01:52;;;;;;;13.90;3.38;;;;;;;10.19;100.00;101649.28;6248853;28;20045;-88
2023/05/30 05:04:54;;;;;;;14.68;3.97;;;;;;;10.21;100.00;101644.84;6245769;28;20037;-88
2023/05/30 05:07:56;;;;;;;10.50;3.70;;;;;;;10.21;100.00;101647.44;6245251;28;20140;-88
2023/05/30 05:10:58;;;;;;;14.13;3.90;;;;;;;10.29;100.00;101641.81;6247743;28;20049;-88
2023/05/30 05:14:00;;;;;;;11.18;3.70;;;;;;;10.28;100.00;101637.56;6243946;28;20407;-88
2023/05/30 05:17:05;;;;;;;11.07;3.58;;;;;;;10.40;100.00;101638.59;6239836;28;20060;-88
2023/05/30 05:20:07;;;;;;;13.18;4.40;;;;;;;10.48;100.00;101633.75;6242825;28;20502;-88
2023/05/30 05:23:13;;;;;;;10.85;3.88;;;;;;;10.44;100.00;101630.53;6252281;28;20052;-88
2023/05/30 05:26:15;;;;;;;17.65;4.05;;;;;;;10.47;100.00;101629.53;6252692;28;20376;-87
2023/05/30 05:29:17;;;;;;;12.52;4.40;;;;;;;10.48;100.00;101629.44;6250008;28;20049;-87
2023/05/30 05:32:18;;;;;;;12.85;4.45;;;;;;;10.49;100.00;101627.69;6254272;28;20106;-88
2023/05/30 05:35:20;;;;;;;12.98;3.97;;;;;;;10.53;100.00;101629.13;6248618;28;20054;-88
2023/05/30 05:38:22;;;;;;;12.52;3.80;;;;;;;10.54;100.00;101634.22;6249176;28;20046;-88
2023/05/30 05:41:24;;;;;;;14.93;3.78;;;;;;;10.62;100.00;101633.75;6268384;28;20403;-88
2023/05/30 05:44:26;;;;;;;14.45;4.32;;;;;;;10.75;100.00;101634.66;6252327;28;20124;-88
2023/05/30 05:47:28;;;;;;;14.55;4.38;;;;;;;10.77;100.00;101640.56;6251052;28;20476;-88
2023/05/30 05:50:30;;;;;;;15.88;4.38;;;;;;;10.85;100.00;101652.22;6251436;28;20043;-88
2023/05/30 05:53:32;;;;;;;12.10;4.38;;;;;;;10.97;100.00;101649.69;6253177;28;20609;-88
2023/05/30 05:56:34;;;;;;;10.77;3.78;;;;;;;11.08;100.00;101638.69;6250775;28;20179;-88
2023/05/30 05:59:36;;;;;;;14.75;4.50;;;;;;;11.26;100.00;101644.44;6254231;28;20401;-88
2023/05/30 06:02:38;;;;;;;11.80;3.72;;;;;;;11.52;100.00;101649.72;6251632;28;20415;-88
2023/05/30 06:05:40;;;;;;;10.02;4.00;;;;;;;11.68;100.00;101650.38;6248323;28;20485;-89
2023/05/30 06:08:46;;;;;;;13.10;3.58;;;;;;;11.90;100.00;101648.97;6253442;28;20585;-89
2023/05/30 06:11:48;;;;;;;11.18;4.38;;;;;;;12.04;100.00;101641.94;6218759;28;20034;-89
2023/05/30 06:14:49;;;;;;;10.02;3.88;;;;;;;12.11;100.00;101642.34;6233934;28;20053;-89
2023/05/30 06:17:51;;;;;;;10.82;3.20;;;;;;;12.19;100.00;101634.88;6252565;28;20048;-88
2023/05/30 06:20:53;;;;;;;12.65;3.58;;;;;;;12.49;100.00;101641.50;6247743;28;20037;-88
2023/05/30 06:23:55;;;;;;;10.18;3.53;;;;;;;12.66;100.00;101640.34;6254080;28;20029;-89
2023/05/30 06:26:57;;;;;;;7.47;3.50;;;;;;;12.67;100.00;101637.63;6245716;28;20627;-88
2023/05/30 06:29:59;;;;;;;17.85;5.20;;;;;;;12.62;100.00;101644.06;6252459;28;20267;-88
2023/05/30 06:33:01;;;;;;;11.07;4.13;;;;;;;12.75;100.00;101646.66;6242232;28;20040;-89
2023/05/30 06:36:03;;;;;;;12.02;3.88;;;;;;;12.73;100.00;101648.53;6253016;28;20036;-88
2023/05/30 06:39:05;;;;;;;11.95;4.38;;;;;;;12.66;100.00;101658.50;6253031;28;20967;-88
2023/05/30 06:42:08;;;;;;;17.27;4.47;;;;;;;12.81;100.00;101656.63;6249811;28;20056;-89
2023/05/30 06:45:17;;;;;;;13.52;4.07;;;;;;;13.08;100.00;101664.22;6251907;28;20041;-89
2023/05/30 06:48:21;;;;;;;10.95;4.50;;;;;;;13.34;100.00;101663.22;6245699;28;20415;-88
2023/05/30 06:51:23;;;;;;;9.20;3.47;;;;;;;13.61;100.00;101662.13;6251347;28;20212;-89
2023/05/30 06:54:25;;;;;;;9.88;3.50;;;;;;;13.86;100.00;101681.13;6250687;28;20499;-89
2023/05/30 06:57:27;;;;;;;11.50;4.15;;;;;;;13.99;100.00;101668.88;6243680;28;20069;-89
2023/05/30 07:00:29;;;;;;;11.15;4.32;;;;;;;14.32;100.00;101668.09;6265099;28;20068;-89
2023/05/30 07:03:31;;;;;;;9.27;3.65;;;;;;;14.46;100.00;101667.03;6248027;28;20083;-89
2023/05/30 07:06:33;;;;;;;12.27;4.13;;;;;;;14.36;100.00;101676.50;6249510;28;20147;-89
2023/05/30 07:09:35;;;;;;;11.88;4.07;;;;;;;14.27;100.00;101679.81;6247523;28;20041;-89
2023/05/30 07:12:37;;;;;;;12.07;4.43;;;;;;;14.51;100.00;101680.53;6244692;28;20423;-89
2023/05/30 07:15:39;;;;;;;11.60;4.07;;;;;;;15.07;100.00;101675.28;6249293;28;20037;-89
2023/05/30 07:18:41;;;;;;;14.00;4.18;;;;;;;15.42;100.00;101673.41;6244585;28;20466;-89
2023/05/30 07:21:45;;;;;;;9.60;3.85;;;;;;;15.23;100.00;101677.50;6245343;28;20040;-89
2023/05/30 07:24:47;;;;;;;11.27;3.80;;;;;;;14.93;100.00;101670.34;6238703;28;20048;-89
2023/05/30 07:27:48;;;;;;;9.57;3.53;;;;;;;15.03;100.00;101671.28;6244816;28;20037;-90
2023/05/30 07:30:50;;;;;;;9.77;3.35;;;;;;;15.22;100.00;101672.41;6243471;28;20033;-90
2023/05/30 07:33:52;;;;;;;7.78;3.92;;;;;;;15.44;100.00;101674.94;6250464;28;20048;-89
2023/05/30 07:36:54;;;;;;;11.02;3.90;;;;;;;15.54;100.00;101675.03;6242794;28;20412;-90
2023/05/30 07:39:56;;;;;;;8.43;3.20;;;;;;;15.59;100.00;101674.66;6249455;28;20041;-89
2023/05/30 07:42:58;;;;;;;9.82;3.60;;;;;;;15.81;100.00;101682.41;6247797;28;20339;-90
2023/05/30 07:46:00;;;;;;;12.02;4.00;;;;;;;15.85;100.00;101688.19;6245803;28;20068;-88
2023/05/30 07:49:02;;;;;;;12.85;3.97;;;;;;;15.90;100.00;101680.81;6249789;28;20495;-90
2023/05/30 07:52:04;;;;;;;11.07;3.53;;;;;;;15.86;100.00;101685.47;6249081;28;20047;-90
2023/05/30 07:55:06;;;;;;;17.90;4.57;;;;;;;15.71;100.00;101682.31;6247021;28;20045;-90
2023/05/30 07:58:08;;;;;;;12.35;3.90;;;;;;;15.94;100.00;101674.38;6242265;28;20068;-90
2023/05/30 08:01:15;;;;;;;9.57;3.63;;;;;;;15.96;100.00;101677.69;6247903;28;20048;-90
2023/05/30 08:04:17;;;;;;;10.32;3.58;;;;;;;16.11;100.00;101667.75;6247432;28;20045;-91
2023/05/30 08:07:19;;;;;;;8.55;3.67;;;;;;;16.39;100.00;101660.16;6245611;28;20052;-90
2023/05/30 08:10:22;;;;;;;9.18;3.70;;;;;;;16.62;100.00;101666.03;6240313;28;20076;-90
2023/05/30 08:13:27;;;;;;;10.45;4.50;;;;;;;16.60;100.00;101660.13;6237917;28;20037;-89
2023/05/30 08:16:29;;;;;;;8.00;3.50;;;;;;;16.73;100.00;101656.31;6244072;28;20073;-90
2023/05/30 08:19:31;;;;;;;10.63;3.83;;;;;;;16.98;100.00;101673.31;6241020;28;20041;-90
2023/05/30 08:22:33;;;;;;;8.73;3.70;;;;;;;17.11;100.00;101661.78;6253496;28;20044;-90
2023/05/30 08:25:36;;;;;;;11.85;4.32;;;;;;;17.14;100.00;101661.50;6247936;28;20562;-90
2023/05/30 08:28:38;;;;;;;10.55;4.40;;;;;;;17.16;100.00;101659.56;6249263;28;20041;-90
2023/05/30 08:31:41;;;;;;;9.15;4.70;;;;;;;17.26;100.00;101659.59;6249103;28;20041;-90
2023/05/30 08:34:45;;;;;;;8.05;4.10;;;;;;;17.44;100.00;101657.94;6247605;28;20064;-90
2023/05/30 08:37:47;;;;;;;9.15;3.60;;;;;;;17.51;100.00;101660.81;6253375;28;20041;-90
2023/05/30 08:40:52;;;;;;;9.38;3.17;;;;;;;17.40;100.00;101664.41;6247498;28;20111;-90
2023/05/30 08:43:56;;;;;;;7.28;2.95;;;;;;;17.32;100.00;101672.97;6249394;28;20049;-90
2023/05/30 08:47:00;;;;;;;13.10;3.20;;;;;;;17.27;100.00;101674.34;6245426;28;20632;-90
2023/05/30 08:50:12;;;;;;;9.32;3.33;;;;;;;17.29;100.00;101672.38;6235258;28;20630;-90
2023/05/30 08:53:22;;;;;;;7.72;2.55;;;;;;;17.00;100.00;101667.97;6250381;28;20116;-91
2023/05/30 08:56:37;;;;;;;11.18;3.10;;;;;;;16.79;100.00;101679.34;6251307;28;20501;-91
2023/05/30 08:59:40;;;;;;;10.25;2.80;;;;;;;16.72;100.00;101672.09;6247805;28;20045;-90
2023/05/30 09:02:43;;;;;;;5.53;2.85;;;;;;;16.93;100.00;101672.91;6250298;28;20077;-91
2023/05/30 09:05:46;;;;;;;8.55;3.15;;;;;;;16.98;100.00;101683.78;6253859;28;20045;-89
2023/05/30 09:08:51;;;;;;;8.77;3.20;;;;;;;17.27;100.00;101679.56;6251258;28;20037;-90
2023/05/30 09:11:53;;;;;;;6.28;3.22;;;;;;;17.49;100.00;101681.91;6253534;28;20045;-91
2023/05/30 09:14:58;;;;;;;8.70;3.35;;;;;;;17.32;100.00;101685.22;6245659;28;20041;-91
2023/05/30 09:18:00;;;;;;;7.32;2.72;;;;;;;17.45;100.00;101677.91;6262384;28;20049;-91
2023/05/30 09:21:03;;;;;;;8.80;2.85;;;;;;;17.60;100.00;101689.63;6249409;28;20052;-90
2023/05/30 09:24:05;;;;;;;10.30;3.15;;;;;;;17.73;100.00;101691.94;6249327;28;20048;-91
2023/05/30 09:27:07;;;;;;;5.38;2.60;;;;;;;17.45;100.00;101691.00;6246193;28;20049;-89
2023/05/30 09:30:10;;;;;;;6.10;2.55;;;;;;;16.86;100.00;101695.31;6254221;28;20252;-89
2023/05/30 09:33:12;;;;;;;4.35;2.50;;;;;;;16.51;100.00;101687.88;6252102;28;20063;-89
2023/05/30 09:36:22;;;;;;;5.25;2.25;;;;;;;16.82;100.00;101693.94;6249989;28;20037;-91
2023/05/30 09:39:26;;;;;;;5.87;2.40;;;;;;;17.25;100.00;101695.41;6254129;28;20050;-91
2023/05/30 09:42:37;;;;;;;8.32;2.53;;;;;;;17.41;100.00;101703.53;6253613;28;20091;-91
2023/05/30 09:45:40;;;;;;;6.68;2.55;;;;;;;17.48;100.00;101697.75;6253220;28;20490;-91
2023/05/30 09:48:41;;;;;;;5.82;2.13;;;;;;;17.58;100.00;101699.41;6243641;28;20173;-92
2023/05/30 09:51:43;;;;;;;5.80;2.88;;;;;;;18.02;100.00;101698.97;6249334;28;20042;-91
2023/05/30 09:54:46;;;;;;;5.72;2.20;;;;;;;17.93;100.00;101699.81;6252013;28;20096;-91
2023/05/30 09:57:50;;;;;;;4.38;1.95;;;;;;;18.11;100.00;101692.91;6249297;28;20088;-92
2023/05/30 10:00:54;;;;;;;5.70;2.30;;;;;;;18.16;100.00;101701.16;6261501;28;20061;-92
2023/05/30 10:03:57;;;;;;;5.50;2.05;;;;;;;18.36;100.00;101706.31;6255013;28;20498;-90
2023/05/30 10:06:59;;;;;;;4.13;2.20;;;;;;;18.49;100.00;101689.31;6250647;28;20044;-92
2023/05/30 10:10:03;;;;;;;3.60;2.22;;;;;;;18.68;100.00;101685.78;6238002;28;20072;-92
2023/05/30 10:13:05;;;;;;;4.82;1.90;;;;;;;18.39;100.00;101683.28;6247780;28;20037;-91
2023/05/30 10:16:13;;;;;;;4.45;2.20;;;;;;;18.50;100.00;101688.34;6249803;28;20037;-92
2023/05/30 10:19:23;;;;;;;2.55;1.90;;;;;;;18.45;100.00;101687.13;6247302;28;20045;-90
2023/05/30 10:22:28;;;;;;;3.95;2.38;;;;;;;18.54;100.00;101688.06;6238805;28;20399;-90
2023/05/30 10:25:32;;;;;;;3.67;2.03;;;;;;;18.54;100.00;101691.50;6244825;28;20041;-91
2023/05/30 10:28:35;;;;;;;4.80;2.00;;;;;;;18.71;100.00;101692.53;6249935;28;20041;-91
2023/05/30 10:31:37;;;;;;;5.65;2.20;;;;;;;18.58;100.00;101689.41;6246750;28;20480;-90
2023/05/30 10:34:53;;;;;;;4.60;2.10;;;;;;;18.62;100.00;101688.16;6244927;28;20281;-89
2023/05/30 10:37:57;;;;;;;5.68;2.42;;;;;;;19.00;100.00;101684.50;6242820;28;20045;-91
2023/05/30 10:41:11;;;;;;;3.97;2.25;;;;;;;19.38;100.00;101690.50;6229629;28;20045;-90
2023/05/30 10:44:34;;;;;;;4.93;2.15;;;;;;;19.62;100.00;101689.84;6243698;28;20041;-90
2023/05/30 10:48:03;;;;;;;4.97;2.45;;;;;;;19.62;100.00;101683.78;6241896;28;20048;-90
2023/05/30 10:51:05;;;;;;;2.67;2.05;;;;;;;19.84;100.00;101687.75;6245111;28;20033;-90
2023/05/30 10:54:06;;;;;;;5.10;2.20;;;;;;;19.98;100.00;101679.31;6241896;28;20518;-90
2023/05/30 10:57:31;;;;;;;3.50;2.35;;;;;;;19.71;100.00;101678.47;6243243;28;20158;-91
2023/05/30 11:00:33;;;;;;;6.45;2.25;;;;;;;19.53;100.00;101675.03;6251836;28;20037;-91
2023/05/30 11:03:36;;;;;;;4.30;2.10;;;;;;;19.82;100.00;101673.94;6223703;28;20040;-90
2023/05/30 11:06:42;;;;;;;4.00;2.53;;;;;;;19.65;100.00;101676.44;6238552;28;20037;-90
2023/05/30 11:10:05;;;;;;;3.72;2.58;;;;;;;19.71;100.00;101667.97;6240135;28;20175;-91
2023/05/30 11:13:14;;;;;;;4.95;2.70;;;;;;;20.04;100.00;101662.09;6234564;28;20484;-89
2023/05/30 11:16:24;;;;;;;4.40;2.60;;;;;;;20.23;100.00;101667.13;6245306;28;20045;-91
2023/05/30 11:19:36;;;;;;;3.40;2.50;;;;;;;19.98;100.00;101664.38;6247598;28;20047;-90
2023/05/30 11:22:38;;;;;;;6.03;3.25;;;;;;;20.05;100.00;101658.47;6245583;28;20065;-91
2023/05/30 11:25:41;;;;;;;3.97;3.20;;;;;;;20.04;100.00;101667.34;6246058;28;20034;-91
2023/05/30 11:28:44;;;;;;;7.47;2.70;;;;;;;20.30;100.00;101675.22;6247404;28;20049;-89
2023/05/30 11:31:53;;;;;;;4.75;2.63;;;;;;;20.17;100.00;101668.59;6243889;28;20041;-90
2023/05/30 11:35:00;;;;;;;6.22;3.17;;;;;;;19.78;100.00;101661.13;6232884;28;20041;-90
2023/05/30 11:38:06;;;;;;;4.90;2.70;;;;;;;19.79;100.00;101649.63;6250133;28;20770;-91
2023/05/30 11:41:13;;;;;;;5.45;3.00;;;;;;;20.44;100.00;101654.41;6240118;28;20359;-92
2023/05/30 11:44:16;;;;;;;6.18;3.15;;;;;;;20.59;100.00;101648.56;6247769;28;20065;-91
2023/05/30 11:47:26;;;;;;;7.22;3.13;;;;;;;20.24;100.00;101668.78;6246285;28;20045;-91
2023/05/30 11:50:46;;;;;;;5.03;3.28;;;;;;;20.29;100.00;101663.88;6250770;28;20845;-90
2023/05/30 11:53:48;;;;;;;6.78;3.30;;;;;;;20.27;100.00;101668.44;6250436;28;20123;-89
2023/05/30 11:56:51;;;;;;;5.22;3.17;;;;;;;20.35;100.00;101662.44;6250425;28;20040;-91
2023/05/30 11:59:54;;;;;;;5.88;3.22;;;;;;;20.32;100.00;101663.56;6243260;28;20443;-91
2023/05/30 12:02:56;;;;;;;4.32;2.80;;;;;;;20.18;100.00;101667.59;6243944;28;20639;-91
2023/05/30 12:06:11;;;;;;;7.45;3.35;;;;;;;20.11;100.00;101668.38;6202211;28;20090;-90
2023/05/30 12:09:14;;;;;;;10.05;4.32;;;;;;;20.36;100.00;101667.53;6238485;28;20163;-91
2023/05/30 12:12:17;;;;;;;4.70;3.30;;;;;;;20.64;100.00;101654.19;6240600;28;20045;-91
2023/05/30 12:15:19;;;;;;;10.43;3.35;;;;;;;20.62;100.00;101656.13;6253514;28;20128;-90
2023/05/30 12:18:21;;;;;;;7.95;4.00;;;;;;;20.52;100.00;101661.53;6251306;28;20781;-91
2023/05/30 12:21:27;;;;;;;6.47;4.03;;;;;;;20.61;100.00;101665.03;6248460;28;20076;-90
2023/05/30 12:24:29;;;;;;;6.53;4.15;;;;;;;20.43;100.00;101652.75;6244431;28;20046;-90
2023/05/30 12:27:31;;;;;;;8.68;4.35;;;;;;;20.35;100.00;101660.63;6253991;28;20041;-90
2023/05/30 12:30:41;;;;;;;7.85;3.83;;;;;;;20.33;100.00;101670.47;6247164;28;20052;-90
2023/05/30 12:33:43;;;;;;;6.43;3.77;;;;;;;20.36;100.00;101662.25;6250222;28;20050;-90
2023/05/30 12:36:57;;;;;;;7.65;4.30;;;;;;;20.42;100.00;101664.28;6243642;28;20864;-91
2023/05/30 12:40:03;;;;;;;7.65;3.85;;;;;;;20.87;100.00;101672.84;6249981;28;20500;-90
2023/05/30 12:43:05;;;;;;;11.00;4.05;;;;;;;20.93;100.00;101666.94;6251057;28;20041;-90
2023/05/30 12:46:14;;;;;;;6.40;3.30;;;;;;;21.02;100.00;101659.88;6257144;28;20037;-93
2023/05/30 12:49:16;;;;;;;7.45;3.97;;;;;;;20.88;100.00;101665.78;6245196;28;20467;-90
2023/05/30 12:52:21;;;;;;;5.45;3.80;;;;;;;20.96;100.00;101663.97;6245435;28;20530;-90
2023/05/30 12:55:22;;;;;;;6.03;3.92;;;;;;;20.67;100.00;101658.28;6246768;28;20049;-89
2023/05/30 12:58:25;;;;;;;5.93;3.10;;;;;;;20.69;100.00;101662.41;6245599;28;20042;-91
2023/05/30 13:01:28;;;;;;;6.38;3.20;;;;;;;21.02;100.00;101652.81;6244097;28;20240;-91
2023/05/30 13:04:31;;;;;;;5.15;3.15;;;;;;;21.19;100.00;101652.81;6246795;28;20064;-90
2023/05/30 13:07:33;;;;;;;7.60;3.78;;;;;;;20.95;100.00;101658.88;6257083;28;20041;-89
2023/05/30 13:10:36;;;;;;;11.18;4.40;;;;;;;21.18;100.00;101661.69;6256688;28;20526;-90
2023/05/30 13:13:38;;;;;;;7.50;3.85;;;;;;;21.84;100.00;101655.47;6246259;28;20094;-91
2023/05/30 13:16:41;;;;;;;6.30;4.18;;;;;;;22.20;100.00;101659.50;6244391;28;20075;-88
2023/05/30 13:19:43;;;;;;;8.35;4.07;;;;;;;21.83;100.00;101658.25;6241819;28;20077;-90
2023/05/30 13:22:45;;;;;;;9.73;3.50;;;;;;;21.37;100.00;101660.56;6244271;28;20591;-89
2023/05/30 13:25:47;;;;;;;7.75;3.75;;;;;;;21.22;100.00;101653.31;6251008;28;20490;-89
2023/05/30 13:28:49;;;;;;;6.55;3.58;;;;;;;21.84;100.00;101658.09;6246383;28;20045;-91
2023/05/30 13:31:51;;;;;;;6.18;3.50;;;;;;;21.70;100.00;101640.31;6243422;28;20048;-89
2023/05/30 13:34:53;;;;;;;9.20;3.95;;;;;;;21.81;100.00;101645.22;6247374;28;20912;-91
2023/05/30 13:37:55;;;;;;;6.78;3.53;;;;;;;22.04;100.00;101641.91;6244001;28;20047;-90
2023/05/30 13:40:57;;;;;;;5.15;3.65;;;;;;;21.78;100.00;101645.56;6246614;28;20455;-90
2023/05/30 13:44:00;;;;;;;10.15;4.05;;;;;;;21.49;100.00;101627.69;6251297;28;20042;-91
2023/05/30 13:47:02;;;;;;;8.57;3.80;;;;;;;21.99;100.00;101634.50;6245325;28;20523;-91
2023/05/30 13:50:09;;;;;;;6.88;3.28;;;;;;;22.52;100.00;101643.53;6234876;28;20081;-90
2023/05/30 13:53:11;;;;;;;6.25;3.50;;;;;;;22.29;100.00;101654.03;6246518;28;20037;-90
2023/05/30 13:56:12;;;;;;;10.18;4.10;;;;;;;22.44;100.00;101648.06;6244277;28;20091;-89
2023/05/30 13:59:14;;;;;;;7.85;3.38;;;;;;;22.79;100.00;101642.25;6227280;28;20139;-91
2023/05/30 14:02:16;;;;;;;4.72;3.63;;;;;;;22.50;100.00;101627.06;6251117;28;20085;-91
2023/05/30 14:05:18;;;;;;;5.95;3.70;;;;;;;22.18;100.00;101632.44;6244101;28;20041;-90